sensor_id;sensor_type;location;lat;lon;timestamp;P1;durP1;ratioP1;P2;durP2;ratioP2
17153;SDS011;8692;52.164;7.558;2024-02-15T00:00:02;12.10;;;10.90;;
17153;SDS011;8692;52.164;7.558;2024-02-15T00:02:34;15.00;;;12.10;;
17153;SDS011;8692;52.164;7.558;2024-02-15T00:05:05;12.90;;;11.77;;
17153;SDS011;8692;52.164;7.558;2024-02-15T00:07:34;12.03;;;10.93;;
17153;SDS011;8692;52.164;7.558;2024-02-15T00:10:02;14.07;;;11.73;;
17153;SDS011;8692;52.164;7.558;2024-02-15T00:12:31;11.83;;;10.83;;
17153;SDS011;8692;52.164;7.558;2024-02-15T00:14:59;12.87;;;11.57;;
17153;SDS011;8692;52.164;7.558;2024-02-15T00:17:27;13.13;;;11.83;;
17153;SDS011;8692;52.164;7.558;2024-02-15T00:19:57;12.93;;;11.63;;
17153;SDS011;8692;52.164;7.558;2024-02-15T00:22:27;13.10;;;11.80;;
17153;SDS011;8692;52.164;7.558;2024-02-15T00:24:56;13.17;;;11.87;;
17153;SDS011;8692;52.164;7.558;2024-02-15T00:27:24;11.97;;;10.77;;
17153;SDS011;8692;52.164;7.558;2024-02-15T00:29:52;12.63;;;11.03;;
17153;SDS011;8692;52.164;7.558;2024-02-15T00:32:20;12.70;;;11.60;;
17153;SDS011;8692;52.164;7.558;2024-02-15T00:34:49;12.47;;;11.30;;
17153;SDS011;8692;52.164;7.558;2024-02-15T00:37:17;13.00;;;11.73;;
17153;SDS011;8692;52.164;7.558;2024-02-15T00:39:47;13.17;;;11.97;;
17153;SDS011;8692;52.164;7.558;2024-02-15T00:42:15;13.60;;;12.20;;
17153;SDS011;8692;52.164;7.558;2024-02-15T00:44:43;13.90;;;12.33;;
17153;SDS011;8692;52.164;7.558;2024-02-15T00:47:11;14.70;;;12.73;;
17153;SDS011;8692;52.164;7.558;2024-02-15T00:49:39;15.47;;;13.97;;
17153;SDS011;8692;52.164;7.558;2024-02-15T00:52:07;14.80;;;13.23;;
17153;SDS011;8692;52.164;7.558;2024-02-15T00:54:35;14.00;;;12.03;;
17153;SDS011;8692;52.164;7.558;2024-02-15T00:57:05;14.63;;;13.13;;
17153;SDS011;8692;52.164;7.558;2024-02-15T00:59:33;14.77;;;13.47;;
17153;SDS011;8692;52.164;7.558;2024-02-15T01:02:02;14.83;;;13.33;;
17153;SDS011;8692;52.164;7.558;2024-02-15T01:04:31;14.60;;;13.10;;
17153;SDS011;8692;52.164;7.558;2024-02-15T01:06:59;15.17;;;13.87;;
17153;SDS011;8692;52.164;7.558;2024-02-15T01:09:28;15.33;;;13.53;;
17153;SDS011;8692;52.164;7.558;2024-02-15T01:11:56;13.70;;;12.50;;
17153;SDS011;8692;52.164;7.558;2024-02-15T01:14:26;16.17;;;14.63;;
17153;SDS011;8692;52.164;7.558;2024-02-15T01:16:57;14.57;;;13.17;;
17153;SDS011;8692;52.164;7.558;2024-02-15T01:19:25;16.77;;;12.80;;
17153;SDS011;8692;52.164;7.558;2024-02-15T01:21:53;15.07;;;13.20;;
17153;SDS011;8692;52.164;7.558;2024-02-15T01:24:21;14.60;;;13.20;;
17153;SDS011;8692;52.164;7.558;2024-02-15T01:26:52;14.23;;;12.93;;
17153;SDS011;8692;52.164;7.558;2024-02-15T01:29:21;15.43;;;13.97;;
17153;SDS011;8692;52.164;7.558;2024-02-15T01:31:50;14.30;;;13.00;;
17153;SDS011;8692;52.164;7.558;2024-02-15T01:34:18;14.40;;;13.10;;
17153;SDS011;8692;52.164;7.558;2024-02-15T01:36:48;15.00;;;13.60;;
17153;SDS011;8692;52.164;7.558;2024-02-15T01:39:16;15.03;;;12.87;;
17153;SDS011;8692;52.164;7.558;2024-02-15T01:41:47;14.33;;;12.93;;
17153;SDS011;8692;52.164;7.558;2024-02-15T01:44:17;13.63;;;12.43;;
17153;SDS011;8692;52.164;7.558;2024-02-15T01:46:47;13.40;;;12.10;;
17153;SDS011;8692;52.164;7.558;2024-02-15T01:49:20;14.93;;;13.43;;
17153;SDS011;8692;52.164;7.558;2024-02-15T01:51:49;16.10;;;13.20;;
17153;SDS011;8692;52.164;7.558;2024-02-15T01:54:20;13.83;;;12.37;;
17153;SDS011;8692;52.164;7.558;2024-02-15T01:56:48;15.17;;;13.60;;
17153;SDS011;8692;52.164;7.558;2024-02-15T01:59:17;14.97;;;13.07;;
17153;SDS011;8692;52.164;7.558;2024-02-15T02:01:46;13.97;;;12.57;;
17153;SDS011;8692;52.164;7.558;2024-02-15T02:04:14;14.73;;;13.20;;
17153;SDS011;8692;52.164;7.558;2024-02-15T02:06:44;14.40;;;12.90;;
17153;SDS011;8692;52.164;7.558;2024-02-15T02:09:13;14.87;;;13.40;;
17153;SDS011;8692;52.164;7.558;2024-02-15T02:11:41;16.27;;;13.87;;
17153;SDS011;8692;52.164;7.558;2024-02-15T02:14:12;14.97;;;13.47;;
17153;SDS011;8692;52.164;7.558;2024-02-15T02:16:41;14.53;;;13.13;;
17153;SDS011;8692;52.164;7.558;2024-02-15T02:19:09;15.30;;;13.87;;
17153;SDS011;8692;52.164;7.558;2024-02-15T02:21:38;15.47;;;13.87;;
17153;SDS011;8692;52.164;7.558;2024-02-15T02:24:09;14.77;;;13.27;;
17153;SDS011;8692;52.164;7.558;2024-02-15T02:26:42;16.73;;;13.97;;
17153;SDS011;8692;52.164;7.558;2024-02-15T02:29:11;15.97;;;14.37;;
17153;SDS011;8692;52.164;7.558;2024-02-15T02:31:39;15.63;;;13.57;;
17153;SDS011;8692;52.164;7.558;2024-02-15T02:34:09;14.80;;;13.37;;
17153;SDS011;8692;52.164;7.558;2024-02-15T02:36:37;16.87;;;14.40;;
17153;SDS011;8692;52.164;7.558;2024-02-15T02:39:07;14.67;;;13.07;;
17153;SDS011;8692;52.164;7.558;2024-02-15T02:41:35;16.63;;;14.87;;
17153;SDS011;8692;52.164;7.558;2024-02-15T02:44:05;16.30;;;14.60;;
17153;SDS011;8692;52.164;7.558;2024-02-15T02:46:33;15.90;;;14.17;;
17153;SDS011;8692;52.164;7.558;2024-02-15T02:49:01;18.53;;;16.50;;
17153;SDS011;8692;52.164;7.558;2024-02-15T02:51:30;22.03;;;16.63;;
17153;SDS011;8692;52.164;7.558;2024-02-15T02:53:58;20.10;;;15.63;;
17153;SDS011;8692;52.164;7.558;2024-02-15T02:56:26;21.53;;;16.73;;
17153;SDS011;8692;52.164;7.558;2024-02-15T02:58:55;20.00;;;16.20;;
17153;SDS011;8692;52.164;7.558;2024-02-15T03:01:24;19.77;;;16.20;;
17153;SDS011;8692;52.164;7.558;2024-02-15T03:03:52;23.03;;;17.23;;
17153;SDS011;8692;52.164;7.558;2024-02-15T03:06:22;21.93;;;17.80;;
17153;SDS011;8692;52.164;7.558;2024-02-15T03:08:51;19.13;;;17.13;;
17153;SDS011;8692;52.164;7.558;2024-02-15T03:11:20;20.33;;;16.57;;
17153;SDS011;8692;52.164;7.558;2024-02-15T03:13:49;20.70;;;17.10;;
17153;SDS011;8692;52.164;7.558;2024-02-15T03:16:17;21.90;;;18.23;;
17153;SDS011;8692;52.164;7.558;2024-02-15T03:18:50;22.73;;;17.93;;
17153;SDS011;8692;52.164;7.558;2024-02-15T03:21:18;21.73;;;17.23;;
17153;SDS011;8692;52.164;7.558;2024-02-15T03:23:47;21.17;;;17.73;;
17153;SDS011;8692;52.164;7.558;2024-02-15T03:26:15;20.80;;;17.30;;
17153;SDS011;8692;52.164;7.558;2024-02-15T03:28:43;25.67;;;18.33;;
17153;SDS011;8692;52.164;7.558;2024-02-15T03:31:12;25.90;;;19.83;;
17153;SDS011;8692;52.164;7.558;2024-02-15T03:33:41;22.67;;;20.27;;
17153;SDS011;8692;52.164;7.558;2024-02-15T03:36:11;22.73;;;19.20;;
17153;SDS011;8692;52.164;7.558;2024-02-15T03:38:42;24.30;;;19.40;;
17153;SDS011;8692;52.164;7.558;2024-02-15T03:41:11;24.20;;;20.73;;
17153;SDS011;8692;52.164;7.558;2024-02-15T03:43:39;22.30;;;20.13;;
17153;SDS011;8692;52.164;7.558;2024-02-15T03:46:08;27.13;;;21.47;;
17153;SDS011;8692;52.164;7.558;2024-02-15T03:48:38;24.77;;;20.10;;
17153;SDS011;8692;52.164;7.558;2024-02-15T03:51:08;32.50;;;21.60;;
17153;SDS011;8692;52.164;7.558;2024-02-15T03:53:37;24.73;;;22.10;;
17153;SDS011;8692;52.164;7.558;2024-02-15T03:56:06;24.67;;;20.50;;
17153;SDS011;8692;52.164;7.558;2024-02-15T03:58:35;26.33;;;21.10;;
17153;SDS011;8692;52.164;7.558;2024-02-15T04:01:03;29.17;;;20.83;;
17153;SDS011;8692;52.164;7.558;2024-02-15T04:03:33;24.90;;;20.07;;
17153;SDS011;8692;52.164;7.558;2024-02-15T04:06:01;26.47;;;20.70;;
17153;SDS011;8692;52.164;7.558;2024-02-15T04:08:31;23.63;;;20.00;;
17153;SDS011;8692;52.164;7.558;2024-02-15T04:11:01;28.37;;;19.70;;
17153;SDS011;8692;52.164;7.558;2024-02-15T04:13:29;23.27;;;19.23;;
17153;SDS011;8692;52.164;7.558;2024-02-15T04:15:57;23.53;;;20.67;;
17153;SDS011;8692;52.164;7.558;2024-02-15T04:18:25;26.93;;;19.77;;
17153;SDS011;8692;52.164;7.558;2024-02-15T04:20:53;23.13;;;18.63;;
17153;SDS011;8692;52.164;7.558;2024-02-15T04:23:22;26.07;;;19.27;;
17153;SDS011;8692;52.164;7.558;2024-02-15T04:25:50;26.70;;;19.23;;
17153;SDS011;8692;52.164;7.558;2024-02-15T04:28:19;27.77;;;20.27;;
17153;SDS011;8692;52.164;7.558;2024-02-15T04:30:47;27.67;;;18.67;;
17153;SDS011;8692;52.164;7.558;2024-02-15T04:33:16;26.70;;;18.10;;
17153;SDS011;8692;52.164;7.558;2024-02-15T04:35:44;27.53;;;18.60;;
17153;SDS011;8692;52.164;7.558;2024-02-15T04:38:12;31.80;;;18.30;;
17153;SDS011;8692;52.164;7.558;2024-02-15T04:40:41;24.33;;;18.23;;
17153;SDS011;8692;52.164;7.558;2024-02-15T04:43:09;25.53;;;17.93;;
17153;SDS011;8692;52.164;7.558;2024-02-15T04:45:38;24.57;;;17.20;;
17153;SDS011;8692;52.164;7.558;2024-02-15T04:48:06;21.77;;;18.57;;
17153;SDS011;8692;52.164;7.558;2024-02-15T04:50:35;26.73;;;17.83;;
17153;SDS011;8692;52.164;7.558;2024-02-15T04:53:03;24.03;;;18.50;;
17153;SDS011;8692;52.164;7.558;2024-02-15T04:55:33;28.63;;;19.93;;
17153;SDS011;8692;52.164;7.558;2024-02-15T04:58:01;29.37;;;19.87;;
17153;SDS011;8692;52.164;7.558;2024-02-15T05:00:30;28.17;;;20.47;;
17153;SDS011;8692;52.164;7.558;2024-02-15T05:03:00;28.23;;;20.70;;
17153;SDS011;8692;52.164;7.558;2024-02-15T05:05:28;26.03;;;21.00;;
17153;SDS011;8692;52.164;7.558;2024-02-15T05:07:56;23.27;;;20.77;;
17153;SDS011;8692;52.164;7.558;2024-02-15T05:10:27;26.53;;;20.60;;
17153;SDS011;8692;52.164;7.558;2024-02-15T05:12:56;27.67;;;20.80;;
17153;SDS011;8692;52.164;7.558;2024-02-15T05:15:27;31.03;;;23.00;;
17153;SDS011;8692;52.164;7.558;2024-02-15T05:17:55;32.13;;;22.30;;
17153;SDS011;8692;52.164;7.558;2024-02-15T05:20:25;27.37;;;23.07;;
17153;SDS011;8692;52.164;7.558;2024-02-15T05:22:53;29.30;;;24.93;;
17153;SDS011;8692;52.164;7.558;2024-02-15T05:25:21;30.90;;;24.63;;
17153;SDS011;8692;52.164;7.558;2024-02-15T05:27:52;35.63;;;26.93;;
17153;SDS011;8692;52.164;7.558;2024-02-15T05:30:23;33.43;;;26.07;;
17153;SDS011;8692;52.164;7.558;2024-02-15T05:32:51;28.43;;;24.80;;
17153;SDS011;8692;52.164;7.558;2024-02-15T05:35:21;37.77;;;26.47;;
17153;SDS011;8692;52.164;7.558;2024-02-15T05:37:50;39.00;;;28.10;;
17153;SDS011;8692;52.164;7.558;2024-02-15T05:40:20;32.80;;;26.13;;
17153;SDS011;8692;52.164;7.558;2024-02-15T05:42:48;39.60;;;27.00;;
17153;SDS011;8692;52.164;7.558;2024-02-15T05:45:28;34.33;;;27.40;;
17153;SDS011;8692;52.164;7.558;2024-02-15T05:47:59;35.23;;;27.17;;
17153;SDS011;8692;52.164;7.558;2024-02-15T05:50:28;35.33;;;27.87;;
17153;SDS011;8692;52.164;7.558;2024-02-15T05:52:59;37.40;;;27.90;;
17153;SDS011;8692;52.164;7.558;2024-02-15T05:55:28;33.83;;;26.17;;
17153;SDS011;8692;52.164;7.558;2024-02-15T05:58:00;33.07;;;26.53;;
17153;SDS011;8692;52.164;7.558;2024-02-15T06:00:29;33.83;;;26.23;;
17153;SDS011;8692;52.164;7.558;2024-02-15T06:02:58;33.93;;;26.37;;
17153;SDS011;8692;52.164;7.558;2024-02-15T06:05:29;34.07;;;25.73;;
17153;SDS011;8692;52.164;7.558;2024-02-15T06:07:58;35.43;;;25.03;;
17153;SDS011;8692;52.164;7.558;2024-02-15T06:10:26;32.77;;;24.53;;
17153;SDS011;8692;52.164;7.558;2024-02-15T06:12:56;32.10;;;23.30;;
17153;SDS011;8692;52.164;7.558;2024-02-15T06:15:24;34.13;;;23.03;;
17153;SDS011;8692;52.164;7.558;2024-02-15T06:17:52;30.83;;;22.10;;
17153;SDS011;8692;52.164;7.558;2024-02-15T06:20:21;30.47;;;21.10;;
17153;SDS011;8692;52.164;7.558;2024-02-15T06:22:49;24.80;;;20.40;;
17153;SDS011;8692;52.164;7.558;2024-02-15T06:25:19;31.30;;;21.70;;
17153;SDS011;8692;52.164;7.558;2024-02-15T06:27:48;28.80;;;19.93;;
17153;SDS011;8692;52.164;7.558;2024-02-15T06:30:24;30.53;;;20.47;;
17153;SDS011;8692;52.164;7.558;2024-02-15T06:33:10;28.87;;;18.57;;
17153;SDS011;8692;52.164;7.558;2024-02-15T06:35:55;29.60;;;18.93;;
17153;SDS011;8692;52.164;7.558;2024-02-15T06:38:40;23.63;;;16.90;;
17153;SDS011;8692;52.164;7.558;2024-02-15T06:41:27;26.43;;;16.23;;
17153;SDS011;8692;52.164;7.558;2024-02-15T06:43:55;23.17;;;15.93;;
17153;SDS011;8692;52.164;7.558;2024-02-15T06:46:23;26.53;;;15.63;;
17153;SDS011;8692;52.164;7.558;2024-02-15T06:48:51;20.57;;;15.40;;
17153;SDS011;8692;52.164;7.558;2024-02-15T06:51:21;27.97;;;15.53;;
17153;SDS011;8692;52.164;7.558;2024-02-15T06:53:51;25.53;;;14.00;;
17153;SDS011;8692;52.164;7.558;2024-02-15T06:56:22;21.03;;;13.17;;
17153;SDS011;8692;52.164;7.558;2024-02-15T06:58:52;18.07;;;12.80;;
17153;SDS011;8692;52.164;7.558;2024-02-15T07:01:21;18.17;;;12.83;;
17153;SDS011;8692;52.164;7.558;2024-02-15T07:03:51;21.30;;;13.00;;
17153;SDS011;8692;52.164;7.558;2024-02-15T07:06:22;13.83;;;11.27;;
17153;SDS011;8692;52.164;7.558;2024-02-15T07:08:50;21.00;;;12.80;;
17153;SDS011;8692;52.164;7.558;2024-02-15T07:11:20;19.37;;;12.20;;
17153;SDS011;8692;52.164;7.558;2024-02-15T07:13:48;17.00;;;11.97;;
17153;SDS011;8692;52.164;7.558;2024-02-15T07:16:20;19.17;;;12.07;;
17153;SDS011;8692;52.164;7.558;2024-02-15T07:18:48;16.20;;;11.50;;
17153;SDS011;8692;52.164;7.558;2024-02-15T07:21:16;18.17;;;11.47;;
17153;SDS011;8692;52.164;7.558;2024-02-15T07:23:47;20.03;;;12.03;;
17153;SDS011;8692;52.164;7.558;2024-02-15T07:26:15;15.23;;;10.70;;
17153;SDS011;8692;52.164;7.558;2024-02-15T07:28:45;18.07;;;11.27;;
17153;SDS011;8692;52.164;7.558;2024-02-15T07:31:14;15.40;;;10.47;;
17153;SDS011;8692;52.164;7.558;2024-02-15T07:33:43;14.20;;;10.67;;
17153;SDS011;8692;52.164;7.558;2024-02-15T07:36:11;14.97;;;10.90;;
17153;SDS011;8692;52.164;7.558;2024-02-15T07:38:40;19.23;;;10.60;;
17153;SDS011;8692;52.164;7.558;2024-02-15T07:41:08;20.43;;;10.87;;
17153;SDS011;8692;52.164;7.558;2024-02-15T07:43:36;15.50;;;10.23;;
17153;SDS011;8692;52.164;7.558;2024-02-15T07:46:04;15.80;;;10.27;;
17153;SDS011;8692;52.164;7.558;2024-02-15T07:48:32;13.33;;;9.07;;
17153;SDS011;8692;52.164;7.558;2024-02-15T07:51:01;16.20;;;9.27;;
17153;SDS011;8692;52.164;7.558;2024-02-15T07:53:30;10.33;;;8.67;;
17153;SDS011;8692;52.164;7.558;2024-02-15T07:55:58;14.07;;;9.13;;
17153;SDS011;8692;52.164;7.558;2024-02-15T07:58:26;13.17;;;8.63;;
17153;SDS011;8692;52.164;7.558;2024-02-15T08:00:54;10.93;;;8.30;;
17153;SDS011;8692;52.164;7.558;2024-02-15T08:03:22;12.17;;;8.97;;
17153;SDS011;8692;52.164;7.558;2024-02-15T08:05:51;14.70;;;8.97;;
17153;SDS011;8692;52.164;7.558;2024-02-15T08:08:20;9.80;;;8.00;;
17153;SDS011;8692;52.164;7.558;2024-02-15T08:10:48;12.63;;;8.27;;
17153;SDS011;8692;52.164;7.558;2024-02-15T08:13:17;15.85;;;10.23;;
17153;SDS011;8692;52.164;7.558;2024-02-15T08:15:49;16.00;;;9.20;;
17153;SDS011;8692;52.164;7.558;2024-02-15T08:18:18;14.03;;;7.40;;
17153;SDS011;8692;52.164;7.558;2024-02-15T08:20:47;12.53;;;6.77;;
17153;SDS011;8692;52.164;7.558;2024-02-15T08:23:15;14.33;;;7.00;;
17153;SDS011;8692;52.164;7.558;2024-02-15T08:25:45;14.03;;;7.30;;
17153;SDS011;8692;52.164;7.558;2024-02-15T08:28:13;7.77;;;6.70;;
17153;SDS011;8692;52.164;7.558;2024-02-15T08:30:41;12.00;;;7.20;;
17153;SDS011;8692;52.164;7.558;2024-02-15T08:33:09;10.63;;;6.00;;
17153;SDS011;8692;52.164;7.558;2024-02-15T08:35:37;10.60;;;5.93;;
17153;SDS011;8692;52.164;7.558;2024-02-15T08:38:07;10.53;;;5.90;;
17153;SDS011;8692;52.164;7.558;2024-02-15T08:40:35;10.63;;;7.10;;
17153;SDS011;8692;52.164;7.558;2024-02-15T08:43:05;10.77;;;5.97;;
17153;SDS011;8692;52.164;7.558;2024-02-15T08:45:33;12.43;;;6.27;;
17153;SDS011;8692;52.164;7.558;2024-02-15T08:48:01;13.73;;;6.27;;
17153;SDS011;8692;52.164;7.558;2024-02-15T08:50:31;11.27;;;5.90;;
17153;SDS011;8692;52.164;7.558;2024-02-15T08:52:59;12.23;;;5.63;;
17153;SDS011;8692;52.164;7.558;2024-02-15T08:55:27;12.70;;;6.00;;
17153;SDS011;8692;52.164;7.558;2024-02-15T08:57:55;12.13;;;5.30;;
17153;SDS011;8692;52.164;7.558;2024-02-15T09:00:24;6.10;;;4.97;;
17153;SDS011;8692;52.164;7.558;2024-02-15T09:02:53;9.40;;;5.30;;
17153;SDS011;8692;52.164;7.558;2024-02-15T09:05:23;7.87;;;5.17;;
17153;SDS011;8692;52.164;7.558;2024-02-15T09:07:51;11.40;;;5.43;;
17153;SDS011;8692;52.164;7.558;2024-02-15T09:10:21;8.87;;;4.63;;
17153;SDS011;8692;52.164;7.558;2024-02-15T09:12:49;10.33;;;5.00;;
17153;SDS011;8692;52.164;7.558;2024-02-15T09:15:17;7.00;;;4.83;;
17153;SDS011;8692;52.164;7.558;2024-02-15T09:17:47;7.93;;;5.27;;
17153;SDS011;8692;52.164;7.558;2024-02-15T09:20:16;10.70;;;5.10;;
17153;SDS011;8692;52.164;7.558;2024-02-15T09:22:47;9.80;;;5.23;;
17153;SDS011;8692;52.164;7.558;2024-02-15T09:25:16;8.97;;;5.70;;
17153;SDS011;8692;52.164;7.558;2024-02-15T09:27:44;8.80;;;4.93;;
17153;SDS011;8692;52.164;7.558;2024-02-15T09:30:13;9.20;;;4.77;;
17153;SDS011;8692;52.164;7.558;2024-02-15T09:32:43;15.47;;;5.10;;
17153;SDS011;8692;52.164;7.558;2024-02-15T09:35:13;8.90;;;4.70;;
17153;SDS011;8692;52.164;7.558;2024-02-15T09:37:45;9.17;;;4.80;;
17153;SDS011;8692;52.164;7.558;2024-02-15T09:40:15;9.33;;;4.50;;
17153;SDS011;8692;52.164;7.558;2024-02-15T09:42:45;12.57;;;5.13;;
17153;SDS011;8692;52.164;7.558;2024-02-15T09:45:14;11.97;;;4.93;;
17153;SDS011;8692;52.164;7.558;2024-02-15T09:47:44;8.53;;;5.07;;
17153;SDS011;8692;52.164;7.558;2024-02-15T09:50:15;9.50;;;5.53;;
17153;SDS011;8692;52.164;7.558;2024-02-15T09:52:44;11.47;;;5.83;;
17153;SDS011;8692;52.164;7.558;2024-02-15T09:55:13;6.30;;;4.90;;
17153;SDS011;8692;52.164;7.558;2024-02-15T09:57:42;9.47;;;6.00;;
17153;SDS011;8692;52.164;7.558;2024-02-15T10:00:12;9.33;;;5.17;;
17153;SDS011;8692;52.164;7.558;2024-02-15T10:02:43;13.57;;;5.60;;
17153;SDS011;8692;52.164;7.558;2024-02-15T10:05:13;11.50;;;6.13;;
17153;SDS011;8692;52.164;7.558;2024-02-15T10:07:42;7.57;;;5.60;;
17153;SDS011;8692;52.164;7.558;2024-02-15T10:10:15;9.27;;;5.30;;
17153;SDS011;8692;52.164;7.558;2024-02-15T10:12:45;8.40;;;6.33;;
17153;SDS011;8692;52.164;7.558;2024-02-15T10:15:28;10.20;;;5.77;;
17153;SDS011;8692;52.164;7.558;2024-02-15T10:18:00;10.10;;;6.00;;
17153;SDS011;8692;52.164;7.558;2024-02-15T10:20:31;10.37;;;5.70;;
17153;SDS011;8692;52.164;7.558;2024-02-15T10:23:10;12.67;;;6.07;;
17153;SDS011;8692;52.164;7.558;2024-02-15T10:25:39;9.57;;;5.77;;
17153;SDS011;8692;52.164;7.558;2024-02-15T10:28:08;11.13;;;5.67;;
17153;SDS011;8692;52.164;7.558;2024-02-15T10:30:38;9.93;;;5.60;;
17153;SDS011;8692;52.164;7.558;2024-02-15T10:33:09;8.60;;;5.43;;
17153;SDS011;8692;52.164;7.558;2024-02-15T10:35:46;10.03;;;5.47;;
17153;SDS011;8692;52.164;7.558;2024-02-15T10:38:14;7.90;;;5.70;;
17153;SDS011;8692;52.164;7.558;2024-02-15T10:40:45;7.77;;;4.83;;
17153;SDS011;8692;52.164;7.558;2024-02-15T10:43:14;9.40;;;4.53;;
17153;SDS011;8692;52.164;7.558;2024-02-15T10:45:44;10.53;;;4.83;;
17153;SDS011;8692;52.164;7.558;2024-02-15T10:48:15;7.57;;;4.70;;
17153;SDS011;8692;52.164;7.558;2024-02-15T10:50:44;6.97;;;4.60;;
17153;SDS011;8692;52.164;7.558;2024-02-15T10:53:18;8.40;;;4.67;;
17153;SDS011;8692;52.164;7.558;2024-02-15T10:55:53;7.53;;;5.00;;
17153;SDS011;8692;52.164;7.558;2024-02-15T10:58:26;11.00;;;5.83;;
17153;SDS011;8692;52.164;7.558;2024-02-15T11:01:01;6.63;;;5.00;;
17153;SDS011;8692;52.164;7.558;2024-02-15T11:03:35;9.00;;;5.47;;
17153;SDS011;8692;52.164;7.558;2024-02-15T11:06:10;10.80;;;5.70;;
17153;SDS011;8692;52.164;7.558;2024-02-15T11:08:39;7.37;;;5.07;;
17153;SDS011;8692;52.164;7.558;2024-02-15T11:11:09;7.80;;;4.10;;
17153;SDS011;8692;52.164;7.558;2024-02-15T11:13:41;5.80;;;3.10;;
17153;SDS011;8692;52.164;7.558;2024-02-15T11:16:09;6.20;;;3.23;;
17153;SDS011;8692;52.164;7.558;2024-02-15T11:18:41;5.40;;;3.13;;
17153;SDS011;8692;52.164;7.558;2024-02-15T11:21:13;6.03;;;3.27;;
17153;SDS011;8692;52.164;7.558;2024-02-15T11:23:42;5.40;;;2.93;;
17153;SDS011;8692;52.164;7.558;2024-02-15T11:32:34;5.43;;;3.30;;
17153;SDS011;8692;52.164;7.558;2024-02-15T11:35:06;7.33;;;3.27;;
17153;SDS011;8692;52.164;7.558;2024-02-15T11:46:25;6.70;;;3.40;;
17153;SDS011;8692;52.164;7.558;2024-02-15T11:48:57;10.23;;;3.37;;
17153;SDS011;8692;52.164;7.558;2024-02-15T11:51:31;6.80;;;3.40;;
17153;SDS011;8692;52.164;7.558;2024-02-15T11:54:05;8.27;;;3.50;;
17153;SDS011;8692;52.164;7.558;2024-02-15T11:56:50;7.17;;;3.10;;
17153;SDS011;8692;52.164;7.558;2024-02-15T11:59:21;5.33;;;2.83;;
17153;SDS011;8692;52.164;7.558;2024-02-15T12:01:59;7.53;;;3.23;;
17153;SDS011;8692;52.164;7.558;2024-02-15T12:04:44;6.97;;;2.77;;
17153;SDS011;8692;52.164;7.558;2024-02-15T12:07:31;6.63;;;3.10;;
17153;SDS011;8692;52.164;7.558;2024-02-15T12:10:19;5.97;;;3.07;;
17153;SDS011;8692;52.164;7.558;2024-02-15T12:13:05;11.20;;;3.10;;
17153;SDS011;8692;52.164;7.558;2024-02-15T12:15:59;6.77;;;3.80;;
17153;SDS011;8692;52.164;7.558;2024-02-15T12:18:45;6.50;;;3.57;;
17153;SDS011;8692;52.164;7.558;2024-02-15T12:21:19;5.47;;;3.23;;
17153;SDS011;8692;52.164;7.558;2024-02-15T12:23:50;5.33;;;3.20;;
17153;SDS011;8692;52.164;7.558;2024-02-15T12:26:20;5.03;;;3.43;;
17153;SDS011;8692;52.164;7.558;2024-02-15T12:28:50;7.47;;;3.83;;
17153;SDS011;8692;52.164;7.558;2024-02-15T12:31:21;7.50;;;3.70;;
17153;SDS011;8692;52.164;7.558;2024-02-15T12:33:59;5.47;;;3.20;;
17153;SDS011;8692;52.164;7.558;2024-02-15T12:36:29;8.10;;;2.93;;
17153;SDS011;8692;52.164;7.558;2024-02-15T12:38:59;8.33;;;4.47;;
17153;SDS011;8692;52.164;7.558;2024-02-15T12:41:30;7.67;;;3.57;;
17153;SDS011;8692;52.164;7.558;2024-02-15T12:43:58;4.43;;;3.10;;
17153;SDS011;8692;52.164;7.558;2024-02-15T12:46:27;6.30;;;3.47;;
17153;SDS011;8692;52.164;7.558;2024-02-15T12:49:08;6.00;;;2.97;;
17153;SDS011;8692;52.164;7.558;2024-02-15T12:51:42;8.23;;;3.43;;
17153;SDS011;8692;52.164;7.558;2024-02-15T12:54:19;6.00;;;2.80;;
17153;SDS011;8692;52.164;7.558;2024-02-15T12:56:49;5.03;;;2.97;;
17153;SDS011;8692;52.164;7.558;2024-02-15T12:59:18;6.17;;;3.20;;
17153;SDS011;8692;52.164;7.558;2024-02-15T13:01:47;6.17;;;2.53;;
17153;SDS011;8692;52.164;7.558;2024-02-15T13:04:21;3.90;;;2.40;;
17153;SDS011;8692;52.164;7.558;2024-02-15T13:06:51;3.63;;;2.57;;
17153;SDS011;8692;52.164;7.558;2024-02-15T13:09:19;6.70;;;3.37;;
17153;SDS011;8692;52.164;7.558;2024-02-15T13:11:50;6.43;;;2.73;;
17153;SDS011;8692;52.164;7.558;2024-02-15T13:14:20;6.00;;;2.53;;
17153;SDS011;8692;52.164;7.558;2024-02-15T13:16:48;5.37;;;2.80;;
17153;SDS011;8692;52.164;7.558;2024-02-15T13:19:16;5.10;;;2.60;;
17153;SDS011;8692;52.164;7.558;2024-02-15T13:21:44;4.53;;;2.90;;
17153;SDS011;8692;52.164;7.558;2024-02-15T13:24:19;5.60;;;2.67;;
17153;SDS011;8692;52.164;7.558;2024-02-15T13:26:53;5.43;;;2.43;;
17153;SDS011;8692;52.164;7.558;2024-02-15T13:29:25;7.77;;;2.63;;
17153;SDS011;8692;52.164;7.558;2024-02-15T13:31:53;4.33;;;2.23;;
17153;SDS011;8692;52.164;7.558;2024-02-15T13:34:21;5.63;;;2.30;;
17153;SDS011;8692;52.164;7.558;2024-02-15T13:36:49;4.80;;;3.03;;
17153;SDS011;8692;52.164;7.558;2024-02-15T13:39:17;5.50;;;2.83;;
17153;SDS011;8692;52.164;7.558;2024-02-15T13:41:47;5.47;;;2.43;;
17153;SDS011;8692;52.164;7.558;2024-02-15T13:44:17;7.10;;;2.63;;
17153;SDS011;8692;52.164;7.558;2024-02-15T13:46:46;6.53;;;2.50;;
17153;SDS011;8692;52.164;7.558;2024-02-15T13:49:16;3.20;;;2.20;;
17153;SDS011;8692;52.164;7.558;2024-02-15T13:51:57;5.40;;;2.77;;
17153;SDS011;8692;52.164;7.558;2024-02-15T13:54:29;6.30;;;2.60;;
17153;SDS011;8692;52.164;7.558;2024-02-15T13:56:57;3.30;;;2.30;;
17153;SDS011;8692;52.164;7.558;2024-02-15T13:59:27;7.20;;;2.50;;
17153;SDS011;8692;52.164;7.558;2024-02-15T14:01:56;3.80;;;2.47;;
17153;SDS011;8692;52.164;7.558;2024-02-15T14:04:24;4.67;;;2.40;;
17153;SDS011;8692;52.164;7.558;2024-02-15T14:06:53;6.07;;;2.20;;
17153;SDS011;8692;52.164;7.558;2024-02-15T14:09:22;4.77;;;2.50;;
17153;SDS011;8692;52.164;7.558;2024-02-15T14:11:53;4.50;;;2.37;;
17153;SDS011;8692;52.164;7.558;2024-02-15T14:14:21;4.40;;;2.03;;
17153;SDS011;8692;52.164;7.558;2024-02-15T14:16:50;3.73;;;2.03;;
17153;SDS011;8692;52.164;7.558;2024-02-15T14:19:19;5.97;;;2.30;;
17153;SDS011;8692;52.164;7.558;2024-02-15T14:21:47;5.30;;;2.10;;
17153;SDS011;8692;52.164;7.558;2024-02-15T14:24:15;4.07;;;2.07;;
17153;SDS011;8692;52.164;7.558;2024-02-15T14:26:45;5.07;;;1.93;;
17153;SDS011;8692;52.164;7.558;2024-02-15T14:29:13;4.10;;;1.93;;
17153;SDS011;8692;52.164;7.558;2024-02-15T14:31:42;2.83;;;1.67;;
17153;SDS011;8692;52.164;7.558;2024-02-15T14:34:29;7.10;;;2.23;;
17153;SDS011;8692;52.164;7.558;2024-02-15T14:36:57;5.50;;;2.13;;
17153;SDS011;8692;52.164;7.558;2024-02-15T14:39:26;5.13;;;2.07;;
17153;SDS011;8692;52.164;7.558;2024-02-15T14:41:54;5.60;;;2.17;;
17153;SDS011;8692;52.164;7.558;2024-02-15T14:44:22;5.27;;;2.53;;
17153;SDS011;8692;52.164;7.558;2024-02-15T14:46:50;5.30;;;2.47;;
17153;SDS011;8692;52.164;7.558;2024-02-15T14:49:20;4.07;;;1.70;;
17153;SDS011;8692;52.164;7.558;2024-02-15T14:51:50;5.13;;;1.87;;
17153;SDS011;8692;52.164;7.558;2024-02-15T14:54:18;4.17;;;1.87;;
17153;SDS011;8692;52.164;7.558;2024-02-15T14:56:49;3.73;;;2.00;;
17153;SDS011;8692;52.164;7.558;2024-02-15T14:59:17;8.23;;;1.93;;
17153;SDS011;8692;52.164;7.558;2024-02-15T15:01:45;6.50;;;2.07;;
17153;SDS011;8692;52.164;7.558;2024-02-15T15:04:13;5.07;;;1.73;;
17153;SDS011;8692;52.164;7.558;2024-02-15T15:06:43;5.43;;;2.07;;
17153;SDS011;8692;52.164;7.558;2024-02-15T15:09:30;5.43;;;2.60;;
17153;SDS011;8692;52.164;7.558;2024-02-15T15:12:24;6.67;;;2.03;;
17153;SDS011;8692;52.164;7.558;2024-02-15T15:15:06;3.10;;;2.00;;
17153;SDS011;8692;52.164;7.558;2024-02-15T15:17:34;5.40;;;2.40;;